createdAt,value
2022-10-17T00:17:05.863Z,12.07
2022-10-17T00:38:09.495Z,11.94
2022-10-17T00:57:16.424Z,11.8
2022-10-17T01:17:45.357Z,11.74
2022-10-17T01:37:43.985Z,11.59
2022-10-17T01:57:41.924Z,11.53
2022-10-17T02:17:20.336Z,11.4
2022-10-17T02:37:58.359Z,11.26
2022-10-17T02:57:04.573Z,11.11
2022-10-17T03:17:23.725Z,10.96
2022-10-17T03:38:30.372Z,10.89
2022-10-17T03:57:27.672Z,10.84
2022-10-17T04:18:23.104Z,10.73
2022-10-17T04:37:34.259Z,10.66
2022-10-17T04:57:35.063Z,10.85
2022-10-17T05:18:05.634Z,10.77
2022-10-17T05:38:33.208Z,10.69
2022-10-17T05:58:49.629Z,10.75
2022-10-17T06:17:57.487Z,11.06
2022-10-17T06:38:29.404Z,11.49
2022-10-17T06:58:07.431Z,11.94
2022-10-17T07:18:04.258Z,12.13
2022-10-17T07:38:12.235Z,12.45
2022-10-17T07:58:16.975Z,13.02
2022-10-17T08:17:43.779Z,13.7
2022-10-17T08:38:16.863Z,14.41
2022-10-17T08:56:53.703Z,15.08
2022-10-17T09:17:07.502Z,15.96
2022-10-17T09:38:30.532Z,16.56
2022-10-17T09:57:48.695Z,17.22
2022-10-17T10:18:07.100Z,18.17
2022-10-17T10:38:15.601Z,19.08
2022-10-17T10:57:06.883Z,20.27
2022-10-17T11:18:04.895Z,21.5
2022-10-17T11:38:39.636Z,22.8
2022-10-17T11:57:08.514Z,24.15
2022-10-17T12:18:19.821Z,24.89
2022-10-17T12:38:21.974Z,25.05
2022-10-17T12:57:47.470Z,25.2
2022-10-17T13:18:09.665Z,25.75
2022-10-17T13:38:23.659Z,25.96
2022-10-17T13:58:50.765Z,25.64
2022-10-17T14:18:21.771Z,25.22
2022-10-17T14:38:18.241Z,24.37
2022-10-17T14:58:12.873Z,23.56
2022-10-17T15:18:26.967Z,22.7
2022-10-17T15:37:34.718Z,21.94
2022-10-17T15:58:24.468Z,21.11
2022-10-17T16:18:53.987Z,19.95
2022-10-17T16:38:08.949Z,18.88
2022-10-17T16:57:38.286Z,17.97
2022-10-17T17:18:36.557Z,17.2
2022-10-17T17:38:47.097Z,16.61
2022-10-17T17:56:56.747Z,16.19
2022-10-17T18:17:44.954Z,15.8
2022-10-17T18:37:56.287Z,15.45
2022-10-17T18:58:42.668Z,15.17
2022-10-17T19:17:50.169Z,14.9
2022-10-17T19:37:40.343Z,14.64
2022-10-17T19:57:43.473Z,14.42
2022-10-17T20:18:50.348Z,14.21
2022-10-17T20:37:28.688Z,14
2022-10-17T20:57:55.287Z,13.75
2022-10-17T21:18:04.934Z,13.53
2022-10-17T21:37:20.709Z,13.33
2022-10-17T22:17:53.590Z,12.92
2022-10-17T22:38:27.940Z,12.74
2022-10-17T22:58:27.871Z,12.53
2022-10-17T23:18:34.179Z,12.42
2022-10-17T23:38:13.511Z,12.4
2022-10-17T23:57:30.671Z,12.34
